Baitag, Mongolia
Current Conditions -  °F | °C
As of 1:30 PM on Sunday 26 Oct 2014 (Local Time) from ZWWW Reporting Station
Smoke Smoke  
Wind Chill: 61°   Ceiling: Unl
Heat Index: 61°   Visibility: 1.8mi
Dew Point: 45°   Wind: 4mph
Humidity: 55%   Direction: 10°N
Pressure: 29.97"   Gusts: NA
Location:  46.12°N, 91.47°E
Report Text: ZWWW 260530Z 01002MPS 320V070 3000 FU NSC 16/07 Q1015 NOSIG
Loading
Personal Weather Stations






























Interactive Weather Map
Tropical Storm Tracking
New forecast layout! Learn more

10-Day Weather Forecast

Advertisements
Track Severe Weather on mobile